createdAt,value
2016-11-29T00:00:36.749Z,0
2016-11-29T00:01:46.455Z,0
2016-11-29T00:02:56.486Z,0
2016-11-29T00:04:06.186Z,0
2016-11-29T00:05:16.511Z,0
2016-11-29T00:06:26.842Z,0
2016-11-29T00:07:36.850Z,0
2016-11-29T00:08:47.173Z,0
2016-11-29T00:09:57.527Z,0
2016-11-29T00:11:07.854Z,0
2016-11-29T00:12:18.171Z,0
2016-11-29T00:13:28.193Z,0
2016-11-29T00:14:37.890Z,0
2016-11-29T00:15:47.900Z,0
2016-11-29T00:16:58.225Z,0
2016-11-29T00:18:08.555Z,0
2016-11-29T00:19:18.602Z,0
2016-11-29T00:20:28.617Z,0
2016-11-29T00:21:38.950Z,0
2016-11-29T00:22:49.287Z,0
2016-11-29T00:23:59.633Z,0
2016-11-29T00:25:09.949Z,0
2016-11-29T00:26:19.964Z,0
2016-11-29T00:27:30.293Z,0
2016-11-29T00:28:40.636Z,0
2016-11-29T00:29:50.668Z,0
2016-11-29T00:31:00.994Z,0
2016-11-29T00:32:11.311Z,0
2016-11-29T00:33:21.063Z,0
2016-11-29T00:34:31.070Z,0
2016-11-29T00:35:41.093Z,0
2016-11-29T00:36:51.112Z,0
2016-11-29T00:38:01.487Z,0
2016-11-29T00:39:11.806Z,0
2016-11-29T00:40:22.119Z,0
2016-11-29T00:41:32.130Z,0
2016-11-29T00:42:42.138Z,0
2016-11-29T00:43:52.177Z,0
2016-11-29T00:45:02.187Z,0
2016-11-29T00:46:12.236Z,0
2016-11-29T00:47:21.933Z,0
2016-11-29T00:48:31.951Z,0
2016-11-29T00:49:42.279Z,0
2016-11-29T00:50:52.334Z,0
2016-11-29T00:52:02.671Z,0
2016-11-29T00:53:13.007Z,0
2016-11-29T00:54:23.334Z,0
2016-11-29T00:55:33.659Z,0
2016-11-29T00:56:43.999Z,0
2016-11-29T00:57:54.327Z,0
2016-11-29T00:59:04.347Z,0
2016-11-29T01:00:14.372Z,0
2016-11-29T01:01:24.713Z,0
2016-11-29T01:02:35.043Z,0
2016-11-29T01:03:45.427Z,0
2016-11-29T01:04:55.789Z,0
2016-11-29T01:06:05.486Z,0
2016-11-29T01:07:15.498Z,0
2016-11-29T01:08:25.517Z,0
2016-11-29T01:09:35.842Z,0
2016-11-29T01:10:45.844Z,0
2016-11-29T01:11:55.864Z,0
2016-11-29T01:13:06.237Z,0
2016-11-29T01:14:15.935Z,0
2016-11-29T01:15:26.256Z,0
2016-11-29T01:16:36.572Z,0
2016-11-29T01:17:46.913Z,0
2016-11-29T01:18:56.610Z,0
2016-11-29T01:20:06.927Z,0
2016-11-29T01:21:16.939Z,0
2016-11-29T01:22:26.965Z,0
2016-11-29T01:23:37.299Z,0
2016-11-29T01:24:47.319Z,0
2016-11-29T01:25:57.353Z,0
2016-11-29T01:27:07.361Z,0
2016-11-29T01:28:17.065Z,0
2016-11-29T01:29:26.756Z,0
2016-11-29T01:30:36.455Z,0
2016-11-29T01:31:46.469Z,0
2016-11-29T01:32:56.790Z,0
2016-11-29T01:34:07.113Z,0
2016-11-29T01:35:17.120Z,0
2016-11-29T01:36:27.131Z,0
2016-11-29T01:37:36.828Z,0
2016-11-29T01:38:46.848Z,0
2016-11-29T01:39:57.167Z,0
2016-11-29T01:41:07.168Z,0
2016-11-29T01:42:17.190Z,0
2016-11-29T01:43:27.201Z,0
2016-11-29T01:44:36.893Z,0
2016-11-29T01:45:46.590Z,0
2016-11-29T01:46:56.902Z,0
2016-11-29T01:48:07.223Z,0
2016-11-29T01:49:17.569Z,0
2016-11-29T01:50:27.587Z,0
2016-11-29T01:51:37.915Z,0
2016-11-29T01:52:47.613Z,0
2016-11-29T01:53:57.001Z,0
2016-11-29T01:55:07.003Z,0
2016-11-29T01:56:17.320Z,0
2016-11-29T01:57:27.676Z,0
2016-11-29T01:58:37.722Z,0
2016-11-29T01:59:47.457Z,0
2016-11-29T02:00:57.783Z,0
2016-11-29T02:02:07.794Z,0
2016-11-29T02:03:17.801Z,0
2016-11-29T02:04:28.133Z,0
2016-11-29T02:05:38.148Z,0
2016-11-29T02:06:48.189Z,0
2016-11-29T02:07:57.877Z,0
2016-11-29T02:09:08.194Z,0
2016-11-29T02:10:18.201Z,0
2016-11-29T02:11:28.221Z,0
2016-11-29T02:12:38.553Z,0
2016-11-29T02:13:48.870Z,0
2016-11-29T02:14:58.872Z,0
2016-11-29T02:16:08.269Z,0
2016-11-29T02:17:18.282Z,0
2016-11-29T02:18:28.297Z,0
2016-11-29T02:19:38.018Z,0
2016-11-29T02:20:48.030Z,0
2016-11-29T02:21:58.362Z,0
2016-11-29T02:23:08.369Z,0
2016-11-29T02:24:18.384Z,0
2016-11-29T02:25:28.081Z,0
2016-11-29T02:26:38.114Z,0
2016-11-29T02:27:48.510Z,0
2016-11-29T02:28:58.528Z,0
2016-11-29T02:30:08.848Z,0
2016-11-29T02:31:19.205Z,0
2016-11-29T02:32:29.212Z,0
2016-11-29T02:33:38.918Z,0
2016-11-29T02:34:48.609Z,0
2016-11-29T02:35:58.611Z,0
2016-11-29T02:37:08.304Z,0
2016-11-29T02:38:18.004Z,0
2016-11-29T02:39:28.335Z,0
2016-11-29T02:40:38.030Z,0
2016-11-29T02:41:48.044Z,0
2016-11-29T02:42:58.050Z,0
2016-11-29T02:44:08.063Z,0
2016-11-29T02:45:18.384Z,0
2016-11-29T02:46:28.087Z,0
2016-11-29T02:47:38.088Z,0
2016-11-29T02:48:48.099Z,0
2016-11-29T02:49:58.114Z,0
2016-11-29T02:51:08.129Z,0
2016-11-29T02:52:18.444Z,0
2016-11-29T02:53:28.754Z,0
2016-11-29T02:54:39.077Z,0
2016-11-29T02:55:49.395Z,0
2016-11-29T02:56:59.109Z,0
2016-11-29T02:58:09.135Z,0
2016-11-29T02:59:19.140Z,0
2016-11-29T03:00:29.187Z,0
2016-11-29T03:32:32.084Z,0
2016-11-29T03:33:42.093Z,0
2016-11-29T03:34:51.783Z,0
2016-11-29T03:36:02.090Z,0
2016-11-29T03:37:11.787Z,0
2016-11-29T03:38:21.812Z,0
2016-11-29T03:39:32.168Z,0
2016-11-29T03:40:42.166Z,0
2016-11-29T03:41:52.478Z,0
2016-11-29T03:43:02.490Z,0
2016-11-29T03:44:12.816Z,0
2016-11-29T03:45:23.164Z,0
2016-11-29T03:46:33.481Z,0
2016-11-29T03:47:43.497Z,0
2016-11-29T03:48:53.183Z,0
2016-11-29T03:50:03.511Z,0
2016-11-29T03:51:13.841Z,0
2016-11-29T03:52:24.149Z,0
2016-11-29T03:53:34.475Z,0
2016-11-29T03:54:44.791Z,0
2016-11-29T03:55:55.105Z,0
2016-11-29T03:57:05.460Z,0
2016-11-29T03:58:15.779Z,0
2016-11-29T03:59:25.790Z,0
2016-11-29T04:00:35.795Z,0
2016-11-29T04:01:46.137Z,0
2016-11-29T04:02:56.149Z,0
2016-11-29T04:04:05.535Z,0
2016-11-29T04:05:15.861Z,0
2016-11-29T04:06:25.874Z,0
2016-11-29T04:07:35.895Z,0
2016-11-29T04:08:45.909Z,0
2016-11-29T04:09:55.919Z,0
2016-11-29T04:11:05.316Z,0
2016-11-29T04:12:15.323Z,0
2016-11-29T04:13:25.659Z,0
2016-11-29T04:14:35.680Z,0
2016-11-29T04:15:46.011Z,0
2016-11-29T04:16:56.332Z,0
2016-11-29T04:18:05.719Z,0
2016-11-29T04:19:15.413Z,0
2016-11-29T04:20:25.430Z,0
2016-11-29T04:21:35.445Z,0
2016-11-29T04:22:45.449Z,0
2016-11-29T04:23:55.780Z,0
2016-11-29T04:25:06.133Z,0
2016-11-29T04:26:16.155Z,0
2016-11-29T04:27:26.165Z,0
2016-11-29T04:28:35.863Z,0
2016-11-29T04:29:45.886Z,0
2016-11-29T04:30:56.232Z,0
2016-11-29T04:32:06.598Z,0
2016-11-29T04:33:16.620Z,0
2016-11-29T04:34:26.941Z,0
2016-11-29T04:35:36.638Z,0
2016-11-29T04:36:46.970Z,0
2016-11-29T04:37:57.322Z,0
2016-11-29T04:39:07.645Z,0
2016-11-29T04:40:17.967Z,0
2016-11-29T04:41:27.672Z,0
2016-11-29T04:42:37.685Z,0
2016-11-29T04:43:47.687Z,0
2016-11-29T04:44:57.410Z,0
2016-11-29T04:46:07.721Z,0
2016-11-29T04:47:17.737Z,0
2016-11-29T04:48:27.439Z,0
2016-11-29T04:49:37.817Z,0
2016-11-29T04:50:48.395Z,0
2016-11-29T04:51:58.408Z,0
2016-11-29T04:53:08.432Z,0
2016-11-29T04:54:18.441Z,0
2016-11-29T04:55:27.832Z,0
2016-11-29T04:56:38.172Z,0
2016-11-29T04:57:48.505Z,0
2016-11-29T04:58:58.834Z,0
2016-11-29T05:00:09.160Z,0
2016-11-29T05:01:19.164Z,0
2016-11-29T05:02:29.175Z,0
2016-11-29T05:03:39.497Z,0
2016-11-29T05:04:49.516Z,0
2016-11-29T05:05:59.844Z,0
2016-11-29T05:07:10.165Z,0
2016-11-29T05:08:20.478Z,0
2016-11-29T05:09:30.815Z,0
2016-11-29T05:10:41.147Z,0
2016-11-29T05:11:50.843Z,0
2016-11-29T05:13:01.180Z,0
2016-11-29T05:14:10.878Z,0
2016-11-29T05:15:20.885Z,0
2016-11-29T05:16:31.235Z,0
2016-11-29T05:17:41.239Z,0
2016-11-29T05:18:51.248Z,0
2016-11-29T05:20:01.280Z,0
2016-11-29T05:21:11.611Z,0
2016-11-29T05:22:21.944Z,0
2016-11-29T05:23:31.975Z,0
2016-11-29T05:24:42.012Z,0
2016-11-29T05:25:52.049Z,0
2016-11-29T05:27:02.056Z,0
2016-11-29T05:28:12.377Z,0
2016-11-29T05:29:22.704Z,0
2016-11-29T05:30:33.016Z,0
2016-11-29T05:31:42.709Z,0
2016-11-29T05:32:52.725Z,0
2016-11-29T05:34:02.728Z,0
2016-11-29T05:35:12.119Z,0
2016-11-29T05:36:21.841Z,0
2016-11-29T05:37:32.169Z,0
2016-11-29T05:38:41.868Z,0
2016-11-29T05:39:52.195Z,0
2016-11-29T05:41:02.532Z,0
2016-11-29T05:42:12.550Z,0
2016-11-29T05:43:22.880Z,0
2016-11-29T05:44:32.588Z,0
2016-11-29T05:45:42.285Z,0
2016-11-29T05:46:52.602Z,0
2016-11-29T05:48:02.918Z,0
2016-11-29T05:49:13.235Z,0
2016-11-29T05:50:23.548Z,0
2016-11-29T05:51:33.557Z,0
2016-11-29T05:52:43.570Z,0
2016-11-29T05:53:53.884Z,0
2016-11-29T05:55:03.919Z,0
2016-11-29T05:56:13.949Z,0
2016-11-29T05:57:23.958Z,0
2016-11-29T05:58:34.269Z,0
2016-11-29T05:59:44.584Z,0
2016-11-29T06:00:54.576Z,0
2016-11-29T06:02:04.598Z,0
2016-11-29T06:03:13.693Z,0
2016-11-29T06:04:23.702Z,0
2016-11-29T06:05:33.723Z,0
2016-11-29T06:06:43.427Z,0
2016-11-29T06:07:53.766Z,0
2016-11-29T06:09:04.094Z,0
2016-11-29T06:10:14.431Z,0
2016-11-29T06:11:24.748Z,0
2016-11-29T06:12:34.802Z,0
2016-11-29T06:13:45.134Z,0
2016-11-29T06:14:55.138Z,0
2016-11-29T06:16:05.460Z,0
2016-11-29T06:17:15.834Z,0
2016-11-29T06:18:25.834Z,5
2016-11-29T06:19:35.545Z,5
2016-11-29T06:20:45.241Z,5
2016-11-29T06:21:55.257Z,5
2016-11-29T06:23:05.255Z,5
2016-11-29T06:24:15.576Z,5
2016-11-29T06:25:25.904Z,5
2016-11-29T06:26:35.293Z,5
2016-11-29T06:27:45.301Z,10
2016-11-29T06:28:55.612Z,10
2016-11-29T06:30:05.338Z,10
2016-11-29T06:31:15.663Z,10
2016-11-29T06:32:25.665Z,10
2016-11-29T06:33:35.366Z,15
2016-11-29T06:34:45.683Z,15
2016-11-29T06:35:55.987Z,15
2016-11-29T06:37:05.380Z,15
2016-11-29T06:38:15.702Z,20
2016-11-29T06:39:25.719Z,20
2016-11-29T06:40:35.438Z,20
2016-11-29T06:41:45.438Z,20
2016-11-29T06:42:55.747Z,25
2016-11-29T06:44:05.750Z,25
2016-11-29T06:45:15.765Z,25
2016-11-29T06:46:25.772Z,30
2016-11-29T06:47:35.800Z,30
2016-11-29T06:48:45.176Z,30
2016-11-29T06:49:55.198Z,35
2016-11-29T06:51:05.525Z,35
2016-11-29T06:52:15.590Z,35
2016-11-29T06:53:25.913Z,40
2016-11-29T06:54:35.327Z,40
2016-11-29T06:55:45.656Z,40
2016-11-29T06:56:55.672Z,40
2016-11-29T06:58:05.994Z,45
2016-11-29T06:59:16.322Z,45
2016-11-29T07:00:26.025Z,45
2016-11-29T07:01:35.730Z,45
2016-11-29T07:02:46.090Z,45
2016-11-29T07:03:55.502Z,45
2016-11-29T07:05:05.514Z,50
2016-11-29T07:06:15.522Z,50
2016-11-29T07:07:25.212Z,50
2016-11-29T07:08:35.555Z,55
2016-11-29T07:09:45.247Z,55
2016-11-29T07:10:55.265Z,55
2016-11-29T07:12:05.294Z,55
2016-11-29T07:13:15.609Z,60
2016-11-29T07:14:25.935Z,60
2016-11-29T07:15:35.640Z,60
2016-11-29T07:16:45.654Z,65
2016-11-29T07:17:55.362Z,65
2016-11-29T07:19:05.690Z,65
2016-11-29T07:20:15.703Z,70
2016-11-29T07:21:26.049Z,70
2016-11-29T07:22:36.059Z,70
2016-11-29T07:23:46.391Z,70
2016-11-29T07:24:56.735Z,75
2016-11-29T07:26:06.441Z,75
2016-11-29T07:27:16.150Z,75
2016-11-29T07:28:26.515Z,75
2016-11-29T07:29:36.870Z,80
2016-11-29T07:30:46.576Z,80
2016-11-29T07:31:56.898Z,80
2016-11-29T07:33:06.596Z,85
2016-11-29T07:34:16.922Z,85
2016-11-29T07:35:27.253Z,85
2016-11-29T07:36:37.606Z,85
2016-11-29T07:37:47.941Z,90
2016-11-29T07:38:58.264Z,90
2016-11-29T07:40:08.599Z,90
2016-11-29T07:41:18.613Z,90
2016-11-29T07:42:28.312Z,95
2016-11-29T07:43:38.625Z,95
2016-11-29T07:44:48.936Z,95
2016-11-29T07:45:58.345Z,95
2016-11-29T07:47:08.381Z,95
2016-11-29T07:48:18.386Z,95
2016-11-29T07:49:28.725Z,95
2016-11-29T07:50:39.045Z,100
2016-11-29T07:51:49.053Z,100
2016-11-29T07:52:59.068Z,100
2016-11-29T07:54:09.375Z,100
2016-11-29T07:55:19.692Z,100
2016-11-29T07:56:30.023Z,100
2016-11-29T07:57:39.724Z,100
2016-11-29T07:58:49.427Z,100
2016-11-29T07:59:59.450Z,105
2016-11-29T08:01:09.480Z,105
2016-11-29T08:02:19.197Z,105
2016-11-29T08:03:29.193Z,105
2016-11-29T08:04:39.214Z,110
2016-11-29T08:05:49.242Z,110
2016-11-29T08:06:59.569Z,110
2016-11-29T08:08:09.891Z,110
2016-11-29T08:09:19.908Z,110
2016-11-29T08:10:29.952Z,115
2016-11-29T08:11:39.970Z,115
2016-11-29T08:12:49.984Z,115
2016-11-29T08:13:59.693Z,115
2016-11-29T08:15:10.024Z,115
2016-11-29T08:16:19.740Z,115
2016-11-29T08:17:29.743Z,120
2016-11-29T08:18:40.075Z,120
2016-11-29T08:19:49.150Z,120
2016-11-29T08:20:58.863Z,120
2016-11-29T08:22:08.579Z,125
2016-11-29T08:23:18.918Z,125
2016-11-29T08:24:28.926Z,125
2016-11-29T08:25:38.944Z,125
2016-11-29T08:26:48.946Z,125
2016-11-29T08:27:59.000Z,130
2016-11-29T08:29:09.004Z,130
2016-11-29T08:30:19.326Z,130
2016-11-29T08:31:29.668Z,130
2016-11-29T08:32:39.044Z,130
2016-11-29T08:33:48.750Z,135
2016-11-29T08:34:58.454Z,135
2016-11-29T08:36:08.468Z,135
2016-11-29T08:37:18.166Z,135
2016-11-29T08:38:27.882Z,135
2016-11-29T08:39:37.899Z,135
2016-11-29T08:40:47.616Z,135
2016-11-29T08:41:57.622Z,140
2016-11-29T08:43:07.694Z,140
2016-11-29T08:44:17.695Z,140
2016-11-29T08:45:27.711Z,140
2016-11-29T08:46:38.052Z,140
2016-11-29T08:47:48.075Z,140
2016-11-29T08:48:58.107Z,145
2016-11-29T08:50:08.124Z,145
2016-11-29T08:51:17.532Z,145
2016-11-29T08:52:27.867Z,145
2016-11-29T08:53:38.185Z,145
2016-11-29T08:54:48.511Z,145
2016-11-29T08:55:58.828Z,145
2016-11-29T08:57:08.849Z,150
2016-11-29T08:58:19.193Z,150
2016-11-29T08:59:29.217Z,150
2016-11-29T09:00:38.923Z,150
2016-11-29T09:01:49.252Z,155
2016-11-29T09:02:59.583Z,155
2016-11-29T09:04:09.604Z,155
2016-11-29T09:05:19.630Z,155
2016-11-29T09:06:29.948Z,155
2016-11-29T09:07:40.304Z,155
2016-11-29T09:08:50.643Z,155
2016-11-29T09:10:00.664Z,160
2016-11-29T09:11:12.361Z,160
2016-11-29T09:12:24.300Z,160
2016-11-29T09:13:36.937Z,160
2016-11-29T09:14:50.257Z,160
2016-11-29T09:16:01.967Z,160
2016-11-29T09:17:13.964Z,160
2016-11-29T09:18:24.469Z,160
2016-11-29T09:19:34.851Z,160
2016-11-29T09:20:45.169Z,160
2016-11-29T09:21:55.204Z,160
2016-11-29T09:23:05.221Z,160
2016-11-29T09:24:15.239Z,160
2016-11-29T09:25:25.260Z,160
2016-11-29T09:26:34.970Z,165
2016-11-29T09:27:45.305Z,165
2016-11-29T09:28:55.650Z,165
2016-11-29T09:30:05.363Z,165
2016-11-29T09:31:15.688Z,170
2016-11-29T09:32:25.698Z,170
2016-11-29T09:33:36.017Z,170
2016-11-29T09:34:46.034Z,170
2016-11-29T09:35:56.391Z,170
2016-11-29T09:37:06.723Z,170
2016-11-29T09:38:16.739Z,175
2016-11-29T09:39:27.065Z,175
2016-11-29T09:40:37.082Z,175
2016-11-29T09:41:47.112Z,175
2016-11-29T09:42:57.129Z,175
2016-11-29T09:44:07.459Z,175
2016-11-29T09:45:17.801Z,175
2016-11-29T09:46:27.824Z,175
2016-11-29T09:47:38.147Z,180
2016-11-29T09:48:48.183Z,180
2016-11-29T09:49:58.200Z,175
2016-11-29T09:51:08.211Z,175
2016-11-29T09:52:18.537Z,180
2016-11-29T09:53:28.866Z,175
2016-11-29T09:54:39.196Z,180
2016-11-29T09:55:49.520Z,180
2016-11-29T09:56:59.551Z,180
2016-11-29T09:58:09.888Z,175
2016-11-29T09:59:19.899Z,180
2016-11-29T10:00:30.220Z,180
2016-11-29T10:01:40.548Z,130
2016-11-29T10:02:50.886Z,110
2016-11-29T10:04:00.926Z,150
2016-11-29T10:05:10.946Z,120
2016-11-29T10:06:20.665Z,185
2016-11-29T10:07:30.670Z,185
2016-11-29T10:08:41.051Z,115
2016-11-29T10:09:51.369Z,95
2016-11-29T10:11:01.388Z,95
2016-11-29T10:12:11.401Z,95
2016-11-29T10:13:21.725Z,125
2016-11-29T10:14:32.060Z,185
2016-11-29T10:15:42.066Z,180
2016-11-29T10:16:52.088Z,185
2016-11-29T10:18:02.406Z,135
2016-11-29T10:19:12.436Z,100
2016-11-29T10:20:22.454Z,190
2016-11-29T10:21:32.171Z,190
2016-11-29T10:22:42.196Z,140
2016-11-29T10:23:52.523Z,195
2016-11-29T10:25:02.842Z,110
2016-11-29T10:26:12.228Z,195
2016-11-29T10:27:22.254Z,195
2016-11-29T10:28:32.272Z,185
2016-11-29T10:29:42.288Z,125
2016-11-29T10:30:52.004Z,125
2016-11-29T10:32:02.061Z,210
2016-11-29T10:33:12.387Z,195
2016-11-29T10:34:22.406Z,215
2016-11-29T10:35:32.411Z,155
2016-11-29T10:36:42.434Z,190
2016-11-29T10:37:52.441Z,120
2016-11-29T10:39:02.777Z,180
2016-11-29T10:40:12.805Z,195
2016-11-29T10:41:22.835Z,110
2016-11-29T10:42:32.852Z,105
2016-11-29T10:43:43.173Z,110
2016-11-29T10:44:53.201Z,120
2016-11-29T10:46:03.512Z,120
2016-11-29T10:47:13.528Z,120
2016-11-29T10:48:22.932Z,120
2016-11-29T10:49:32.942Z,120
2016-11-29T10:50:43.271Z,115
2016-11-29T10:51:53.602Z,115
2016-11-29T10:53:03.922Z,120
2016-11-29T10:54:13.956Z,230
2016-11-29T10:55:23.962Z,170
2016-11-29T10:56:33.982Z,135
2016-11-29T10:57:44.316Z,125
2016-11-29T10:58:54.342Z,120
2016-11-29T11:00:04.353Z,175
2016-11-29T11:01:14.369Z,150
2016-11-29T11:02:24.707Z,210
2016-11-29T11:03:35.032Z,225
2016-11-29T11:04:45.050Z,220
2016-11-29T11:05:55.056Z,195
2016-11-29T11:07:05.382Z,160
2016-11-29T11:08:15.735Z,135
2016-11-29T11:09:25.766Z,110
2016-11-29T11:10:35.797Z,110
2016-11-29T11:11:46.125Z,180
2016-11-29T11:12:56.141Z,135
2016-11-29T11:14:06.159Z,120
2016-11-29T11:15:16.494Z,115
2016-11-29T11:16:26.210Z,110
2016-11-29T11:17:36.230Z,110
2016-11-29T11:18:46.552Z,125
2016-11-29T11:19:56.566Z,100
2016-11-29T11:21:06.905Z,105
2016-11-29T11:22:16.605Z,90
2016-11-29T11:23:26.940Z,110
2016-11-29T11:24:37.285Z,95
2016-11-29T11:25:46.980Z,95
2016-11-29T11:26:56.972Z,135
2016-11-29T11:28:06.988Z,95
2016-11-29T11:29:17.315Z,90
2016-11-29T11:30:27.341Z,90
2016-11-29T11:31:37.397Z,175
2016-11-29T11:32:47.424Z,100
2016-11-29T11:33:57.467Z,105
2016-11-29T11:35:07.803Z,105
2016-11-29T11:36:17.844Z,105
2016-11-29T11:37:28.164Z,125
2016-11-29T11:38:38.201Z,100
2016-11-29T11:39:48.551Z,135
2016-11-29T11:40:58.563Z,200
2016-11-29T11:42:08.884Z,200
2016-11-29T11:43:19.229Z,205
2016-11-29T11:44:28.957Z,210
2016-11-29T11:45:38.983Z,205
2016-11-29T11:46:49.322Z,205
2016-11-29T11:47:59.337Z,200
2016-11-29T11:49:09.677Z,200
2016-11-29T11:50:19.390Z,200
2016-11-29T11:51:29.414Z,200
2016-11-29T11:52:39.118Z,200
2016-11-29T11:53:48.835Z,200
2016-11-29T11:54:59.187Z,200
2016-11-29T11:56:09.528Z,200
2016-11-29T11:57:19.556Z,205
2016-11-29T11:58:29.898Z,200
2016-11-29T11:59:40.230Z,200
2016-11-29T12:00:50.230Z,205
2016-11-29T12:02:00.553Z,205
2016-11-29T12:03:10.924Z,205
2016-11-29T12:04:20.934Z,205
2016-11-29T12:05:30.962Z,205
2016-11-29T12:06:40.989Z,205
2016-11-29T12:07:51.324Z,270
2016-11-29T12:09:01.638Z,380
2016-11-29T12:10:11.356Z,415
2016-11-29T12:11:21.682Z,380
2016-11-29T12:12:32.002Z,345
2016-11-29T12:13:42.329Z,365
2016-11-29T12:14:52.695Z,410
2016-11-29T12:16:03.027Z,390
2016-11-29T12:17:13.044Z,330
2016-11-29T12:18:23.059Z,235
2016-11-29T12:19:33.370Z,210
2016-11-29T12:20:43.710Z,200
2016-11-29T12:21:53.717Z,215
2016-11-29T12:23:03.744Z,245
2016-11-29T12:24:13.764Z,335
2016-11-29T12:25:24.098Z,410
2016-11-29T12:26:34.448Z,430
2016-11-29T12:27:44.776Z,400
2016-11-29T12:28:55.107Z,415
2016-11-29T12:30:05.437Z,430
2016-11-29T12:31:15.454Z,370
2016-11-29T12:32:25.466Z,315
2016-11-29T12:33:35.482Z,235
2016-11-29T12:34:45.810Z,195
2016-11-29T12:35:56.187Z,210
2016-11-29T12:37:05.893Z,240
2016-11-29T12:38:16.229Z,320
2016-11-29T12:39:26.576Z,450
2016-11-29T12:40:36.897Z,345
2016-11-29T12:41:46.319Z,370
2016-11-29T12:42:56.650Z,420
2016-11-29T12:44:06.983Z,410
2016-11-29T12:45:17.319Z,305
2016-11-29T12:46:27.341Z,215
2016-11-29T12:47:37.682Z,110
2016-11-29T12:48:47.397Z,135
2016-11-29T12:49:57.726Z,165
2016-11-29T12:51:08.065Z,165
2016-11-29T12:52:18.099Z,160
2016-11-29T12:53:28.447Z,160
2016-11-29T12:54:38.773Z,160
2016-11-29T12:55:48.784Z,160
2016-11-29T12:56:59.112Z,160
2016-11-29T12:58:09.127Z,160
2016-11-29T12:59:19.130Z,160
2016-11-29T13:00:29.145Z,155
2016-11-29T13:01:39.712Z,155
2016-11-29T13:02:49.744Z,150
2016-11-29T13:04:00.076Z,150
2016-11-29T13:05:10.409Z,150
2016-11-29T13:06:20.430Z,145
2016-11-29T13:07:30.771Z,145
2016-11-29T13:08:41.092Z,145
2016-11-29T13:09:50.814Z,140
2016-11-29T13:10:59.902Z,140
2016-11-29T13:12:09.933Z,140
2016-11-29T13:13:20.289Z,140
2016-11-29T13:14:30.832Z,140
2016-11-29T13:15:42.522Z,135
2016-11-29T13:16:53.395Z,135
2016-11-29T13:18:03.391Z,135
2016-11-29T13:19:13.388Z,135
2016-11-29T13:20:23.086Z,135
2016-11-29T13:21:33.420Z,130
2016-11-29T13:22:43.112Z,130
2016-11-29T13:23:53.455Z,125
2016-11-29T13:25:03.478Z,125
2016-11-29T13:26:13.797Z,125
2016-11-29T13:27:23.504Z,120
2016-11-29T13:28:33.830Z,120
2016-11-29T13:29:44.151Z,120
2016-11-29T13:30:54.489Z,120
2016-11-29T13:32:04.825Z,115
2016-11-29T13:33:14.857Z,115
2016-11-29T13:34:25.200Z,110
2016-11-29T13:35:34.938Z,110
2016-11-29T13:36:45.262Z,110
2016-11-29T13:37:55.584Z,110
2016-11-29T13:39:05.920Z,105
2016-11-29T13:40:16.242Z,105
2016-11-29T13:41:26.573Z,105
2016-11-29T13:42:36.280Z,100
2016-11-29T13:43:46.012Z,100
2016-11-29T13:44:56.350Z,100
2016-11-29T13:46:06.670Z,105
2016-11-29T13:47:16.399Z,95
2016-11-29T13:48:26.725Z,95
2016-11-29T13:49:36.741Z,95
2016-11-29T13:50:47.073Z,90
2016-11-29T13:51:57.439Z,90
2016-11-29T13:53:07.467Z,90
2016-11-29T13:54:17.784Z,90
2016-11-29T13:55:27.474Z,90
2016-11-29T13:56:37.481Z,85
2016-11-29T13:57:47.187Z,85
2016-11-29T13:58:57.508Z,85
2016-11-29T14:00:07.831Z,85
2016-11-29T14:01:17.847Z,80
2016-11-29T14:02:28.204Z,80
2016-11-29T14:03:38.210Z,80
2016-11-29T14:04:47.924Z,75
2016-11-29T14:05:57.954Z,75
2016-11-29T14:07:07.980Z,70
2016-11-29T14:08:18.317Z,70
2016-11-29T14:09:28.332Z,65
2016-11-29T14:10:38.680Z,65
2016-11-29T14:11:48.709Z,60
2016-11-29T14:12:58.714Z,55
2016-11-29T14:14:08.746Z,55
2016-11-29T14:15:18.768Z,50
2016-11-29T14:16:29.098Z,50
2016-11-29T14:17:39.116Z,50
2016-11-29T14:18:49.161Z,50
2016-11-29T14:19:59.730Z,45
2016-11-29T14:21:10.076Z,45
2016-11-29T14:22:20.102Z,40
2016-11-29T14:23:30.434Z,40
2016-11-29T14:24:40.127Z,40
2016-11-29T14:25:50.474Z,35
2016-11-29T14:27:00.504Z,35
2016-11-29T14:28:10.517Z,35
2016-11-29T14:29:20.858Z,35
2016-11-29T14:30:31.190Z,30
2016-11-29T14:31:41.221Z,30
2016-11-29T14:32:51.574Z,30
2016-11-29T14:34:01.594Z,25
2016-11-29T14:35:11.935Z,25
2016-11-29T14:36:21.967Z,25
2016-11-29T14:37:31.991Z,25
2016-11-29T14:38:42.318Z,20
2016-11-29T14:39:52.649Z,20
2016-11-29T14:41:02.349Z,20
2016-11-29T14:42:12.372Z,20
2016-11-29T14:43:22.710Z,20
2016-11-29T14:44:32.731Z,15
2016-11-29T14:45:42.759Z,15
2016-11-29T14:46:53.085Z,15
2016-11-29T14:48:02.482Z,15
2016-11-29T14:49:12.507Z,15
2016-11-29T14:50:22.829Z,10
2016-11-29T14:51:33.171Z,10
2016-11-29T14:52:43.503Z,10
2016-11-29T14:53:53.533Z,10
2016-11-29T14:55:03.871Z,10
2016-11-29T14:56:14.208Z,10
2016-11-29T14:57:24.224Z,5
2016-11-29T14:58:34.246Z,5
2016-11-29T14:59:44.583Z,5
2016-11-29T15:00:54.954Z,5
2016-11-29T15:02:05.002Z,5
2016-11-29T15:03:15.348Z,5
2016-11-29T15:04:24.739Z,5
2016-11-29T15:05:34.440Z,5
2016-11-29T15:06:44.467Z,0
2016-11-29T15:07:54.490Z,0
2016-11-29T15:09:04.506Z,0
2016-11-29T15:10:14.522Z,0
2016-11-29T15:11:24.576Z,0
2016-11-29T15:12:34.912Z,0
2016-11-29T15:13:44.924Z,0
2016-11-29T15:14:54.944Z,0
2016-11-29T15:16:04.952Z,0
2016-11-29T15:17:15.298Z,0
2016-11-29T15:18:25.613Z,0
2016-11-29T15:19:35.023Z,0
2016-11-29T15:20:44.743Z,0
2016-11-29T15:21:55.079Z,0
2016-11-29T15:23:04.783Z,0
2016-11-29T15:24:15.123Z,0
2016-11-29T15:25:25.672Z,0
2016-11-29T15:26:35.996Z,0
2016-11-29T15:27:46.003Z,0
2016-11-29T15:28:56.344Z,0
2016-11-29T15:30:06.696Z,0
2016-11-29T15:31:17.024Z,0
2016-11-29T15:32:26.730Z,0
2016-11-29T15:33:37.051Z,0
2016-11-29T15:34:46.753Z,0
2016-11-29T15:35:56.770Z,0
2016-11-29T15:37:06.768Z,0
2016-11-29T15:38:16.788Z,0
2016-11-29T15:39:27.110Z,0
2016-11-29T15:40:37.427Z,0
2016-11-29T15:41:47.773Z,0
2016-11-29T15:42:57.784Z,0
2016-11-29T15:44:09.828Z,0
2016-11-29T15:45:19.734Z,0
2016-11-29T15:46:29.746Z,0
2016-11-29T15:47:40.078Z,0
2016-11-29T15:48:50.409Z,0
2016-11-29T15:50:00.437Z,0
2016-11-29T15:51:10.449Z,0
2016-11-29T15:52:20.480Z,0
2016-11-29T15:53:30.234Z,0
2016-11-29T15:54:40.518Z,0
2016-11-29T15:55:51.900Z,0
2016-11-29T15:57:02.866Z,0
2016-11-29T15:58:13.407Z,0
2016-11-29T15:59:23.681Z,0
2016-11-29T16:00:33.861Z,0
2016-11-29T16:01:43.949Z,0
2016-11-29T16:02:55.630Z,0
2016-11-29T16:04:06.082Z,0
2016-11-29T16:05:16.098Z,0
2016-11-29T16:06:26.429Z,0
2016-11-29T16:07:36.771Z,0
2016-11-29T16:08:46.494Z,0
2016-11-29T16:09:56.511Z,0
2016-11-29T16:11:07.071Z,0
2016-11-29T16:12:17.088Z,0
2016-11-29T16:13:27.126Z,0
2016-11-29T16:14:37.454Z,0
2016-11-29T16:15:47.477Z,0
2016-11-29T16:16:57.808Z,0
2016-11-29T16:18:07.498Z,0
2016-11-29T16:19:17.818Z,0
2016-11-29T16:20:28.175Z,0
2016-11-29T16:21:38.512Z,0
2016-11-29T16:22:48.214Z,0
2016-11-29T16:23:58.265Z,0
2016-11-29T16:25:08.588Z,0
2016-11-29T16:26:18.660Z,0
2016-11-29T16:27:28.996Z,0
2016-11-29T16:28:38.718Z,0
2016-11-29T16:29:49.048Z,0
2016-11-29T16:30:59.074Z,0
2016-11-29T16:32:09.136Z,0
2016-11-29T16:33:19.482Z,0
2016-11-29T16:34:29.817Z,0
2016-11-29T16:35:39.524Z,0
2016-11-29T16:36:49.869Z,0
2016-11-29T16:37:59.896Z,0
2016-11-29T16:39:10.233Z,0
2016-11-29T16:40:20.560Z,0
2016-11-29T16:41:30.891Z,0
2016-11-29T16:42:40.915Z,0
2016-11-29T16:43:50.002Z,0
2016-11-29T16:45:00.324Z,0
2016-11-29T16:46:10.358Z,0
2016-11-29T16:47:20.365Z,0
2016-11-29T16:48:29.766Z,0
2016-11-29T16:49:39.798Z,0
2016-11-29T16:50:49.816Z,0
2016-11-29T16:51:59.847Z,0
2016-11-29T16:53:10.159Z,0
2016-11-29T16:54:20.503Z,0
2016-11-29T16:55:30.507Z,0
2016-11-29T16:56:40.854Z,0
2016-11-29T16:57:51.176Z,0
2016-11-29T16:59:01.202Z,0
2016-11-29T17:00:11.561Z,0
2016-11-29T17:01:21.894Z,0
2016-11-29T17:02:31.913Z,0
2016-11-29T17:03:42.242Z,0
2016-11-29T17:04:52.252Z,0
2016-11-29T17:06:02.277Z,0
2016-11-29T17:07:12.284Z,0
2016-11-29T17:08:22.312Z,0
2016-11-29T17:09:32.657Z,0
2016-11-29T17:10:42.360Z,0
2016-11-29T17:11:52.375Z,0
2016-11-29T17:13:02.732Z,0
2016-11-29T17:14:12.766Z,0
2016-11-29T17:15:22.779Z,0
2016-11-29T17:16:33.104Z,0